Time;durP1;ratioP1;P1;durP2;ratioP2;P2;SDS_P1;SDS_P2;PMS_P1;PMS_P2;Temp;Humidity;BMP_temperature;BMP_pressure;BME280_temperature;BME280_humidity;BME280_pressure;Samples;Min_cycle;Max_cycle;Signal;HPM_P1;HPM_P2
2021/10/05 00:02:03;;;;;;;14.48;13.25;;;;;;;30.41;70.54;100565.28;4963352;28;66064;-37
2021/10/05 00:04:35;;;;;;;15.32;13.60;;;;;;;30.47;70.20;100572.50;4990986;28;70339;-38
2021/10/05 00:07:06;;;;;;;13.88;12.98;;;;;;;30.47;70.79;100573.31;4984657;28;66495;-37
2021/10/05 00:09:37;;;;;;;14.33;13.43;;;;;;;30.46;70.38;100579.78;4990290;28;70109;-38
2021/10/05 00:12:08;;;;;;;14.98;13.20;;;;;;;30.40;70.51;100571.75;4982005;28;65751;-38
2021/10/05 00:14:39;;;;;;;13.70;12.83;;;;;;;30.45;70.80;100580.00;4992081;28;70050;-37
2021/10/05 00:17:11;;;;;;;12.77;11.82;;;;;;;30.45;70.52;100574.59;4984292;28;66552;-37
2021/10/05 00:19:50;;;;;;;14.88;13.45;;;;;;;30.48;70.61;100587.69;4975078;28;69420;-38
2021/10/05 00:22:39;;;;;;;14.50;13.27;;;;;;;30.49;70.02;100575.81;4973359;28;64938;-38
2021/10/05 00:25:51;;;;;;;13.98;12.88;;;;;;;30.35;70.36;100568.88;4935279;28;70317;-38
2021/10/05 00:28:28;;;;;;;14.88;13.60;;;;;;;30.46;70.33;100576.25;4954579;28;64834;-37
2021/10/05 00:31:10;;;;;;;13.60;12.52;;;;;;;30.33;70.40;100555.56;4964109;28;70047;-38
2021/10/05 00:33:55;;;;;;;15.00;11.65;;;;;;;30.47;70.86;100575.19;4939265;28;65886;-38
2021/10/05 00:37:00;;;;;;;14.55;13.23;;;;;;;30.46;71.05;100576.25;4978206;28;70477;-37
2021/10/05 00:39:52;;;;;;;13.73;12.70;;;;;;;30.48;70.86;100579.56;4983122;28;66876;-37
2021/10/05 00:42:33;;;;;;;14.45;13.48;;;;;;;30.47;70.99;100569.78;4956944;28;69477;-37
2021/10/05 00:45:26;;;;;;;14.57;13.48;;;;;;;30.53;70.70;100577.00;4964234;28;64325;-37
2021/10/05 00:48:27;;;;;;;13.45;11.48;;;;;;;30.16;70.39;100528.25;4969294;28;69812;-38
2021/10/05 00:51:16;;;;;;;13.57;12.57;;;;;;;30.54;71.04;100581.38;4971267;28;66292;-37
2021/10/05 00:54:16;;;;;;;15.07;13.77;;;;;;;30.44;71.01;100579.19;4955117;28;69401;-38
2021/10/05 00:57:33;;;;;;;15.13;13.93;;;;;;;30.54;70.41;100592.19;4975200;28;66152;-38
2021/10/05 01:00:55;;;;;;;14.85;13.73;;;;;;;30.49;70.42;100595.56;4972715;28;69583;-38
2021/10/05 01:04:06;;;;;;;15.40;14.23;;;;;;;30.49;71.03;100587.44;4963054;28;66031;-38
2021/10/05 01:07:41;;;;;;;14.55;13.52;;;;;;;30.26;70.52;100550.22;4984055;28;69493;-38
2021/10/05 01:10:42;;;;;;;15.52;14.43;;;;;;;30.59;70.59;100605.91;4953894;28;67291;-38
2021/10/05 01:13:43;;;;;;;18.55;16.77;;;;;;;30.59;70.51;100605.91;4959368;28;70971;-53
2021/10/05 01:16:43;;;;;;;16.63;15.13;;;;;;;30.59;70.22;100624.84;4965607;28;65221;-40
2021/10/05 01:19:33;;;;;;;16.70;15.13;;;;;;;30.60;70.86;100615.66;4978661;28;70233;-39
2021/10/05 01:22:39;;;;;;;17.10;15.60;;;;;;;30.61;70.88;100622.72;4978253;28;66328;-38
2021/10/05 01:26:05;;;;;;;18.73;16.90;;;;;;;30.50;70.83;100632.41;4984313;28;72542;-41
2021/10/05 01:29:04;;;;;;;18.38;16.90;;;;;;;30.61;71.13;100622.72;4967394;28;66808;-38
2021/10/05 01:32:12;;;;;;;18.80;16.95;;;;;;;30.54;70.87;100632.81;4908051;28;69413;-38
2021/10/05 01:35:11;;;;;;;18.45;16.38;;;;;;;30.68;70.65;100634.31;4891713;28;66191;-38
2021/10/05 01:38:17;;;;;;;19.08;17.08;;;;;;;30.69;71.07;100630.53;4911852;28;70476;-38
2021/10/05 01:41:33;;;;;;;19.00;17.30;;;;;;;30.69;71.25;100630.53;4893738;28;66406;-38
2021/10/05 01:44:58;;;;;;;19.13;17.58;;;;;;;30.70;70.75;100637.63;4905360;28;71613;-38
2021/10/05 01:48:32;;;;;;;18.15;16.75;;;;;;;30.72;70.66;100640.91;4881333;28;66814;-39
2021/10/05 01:51:50;;;;;;;22.15;17.02;;;;;;;30.72;71.30;100646.34;4905275;28;70267;-38
2021/10/05 01:55:05;;;;;;;20.30;16.17;;;;;;;30.72;70.96;100656.34;4886427;28;66161;-38
2021/10/05 01:58:01;;;;;;;17.75;16.25;;;;;;;30.76;71.37;100662.97;4883777;28;69610;-38
2021/10/05 02:01:22;;;;;;;18.33;16.50;;;;;;;30.69;71.17;100646.78;4871625;29;66112;-40
2021/10/05 02:05:10;;;;;;;18.15;16.70;;;;;;;30.46;71.07;100614.16;4875818;29;71246;-38
2021/10/05 02:08:32;;;;;;;26.65;22.33;;;;;;;30.74;70.89;100675.91;4864255;28;65691;-38
2021/10/05 02:11:35;;;;;;;31.02;27.75;;;;;;;30.77;70.52;100678.16;4908820;28;68782;-37
2021/10/05 02:14:12;;;;;;;29.92;27.08;;;;;;;30.79;70.50;100673.38;4872748;28;66098;-38
2021/10/05 02:17:16;;;;;;;30.65;27.27;;;;;;;30.69;70.39;100673.88;4896947;28;70660;-38
2021/10/05 02:20:23;;;;;;;38.40;29.45;;;;;;;30.76;70.04;100678.38;4888536;28;66104;-38
2021/10/05 02:23:21;;;;;;;33.25;29.95;;;;;;;30.75;70.26;100679.44;4914264;28;70731;-37
2021/10/05 02:26:20;;;;;;;33.67;30.15;;;;;;;30.73;69.86;100685.91;4918698;28;65177;-38
2021/10/05 02:29:44;;;;;;;37.63;32.58;;;;;;;30.69;69.92;100673.88;4912491;28;68618;-38
2021/10/05 02:33:04;;;;;;;35.58;31.88;;;;;;;30.71;69.81;100677.19;4930104;28;66367;-37
2021/10/05 02:36:13;;;;;;;32.20;28.83;;;;;;;30.76;69.82;100678.38;4924131;28;69895;-38
2021/10/05 02:39:15;;;;;;;33.38;30.23;;;;;;;30.64;70.72;100660.16;4928681;28;66052;-37
2021/10/05 02:42:18;;;;;;;34.65;31.33;;;;;;;30.68;68.13;100666.81;4913107;28;69787;-37
2021/10/05 02:45:10;;;;;;;34.78;31.13;;;;;;;30.60;68.49;100668.97;4886383;28;64837;-37
2021/10/05 02:47:55;;;;;;;35.28;31.75;;;;;;;30.58;68.53;100657.53;4928746;28;69133;-38
2021/10/05 02:50:36;;;;;;;36.28;32.47;;;;;;;30.49;68.61;100640.75;4907569;28;65801;-37
2021/10/05 02:53:34;;;;;;;39.60;31.70;;;;;;;30.53;68.38;100652.78;4898959;28;70224;-37
2021/10/05 02:56:33;;;;;;;37.90;33.47;;;;;;;30.54;68.32;100649.03;4926233;28;65715;-38
2021/10/05 02:59:40;;;;;;;46.17;37.15;;;;;;;30.46;68.46;100643.91;4919237;28;70040;-37
2021/10/05 03:03:10;;;;;;;47.80;39.20;;;;;;;30.46;68.94;100636.63;4902855;28;65231;-37
2021/10/05 03:06:08;;;;;;;51.67;38.72;;;;;;;30.50;69.80;100637.00;4986521;28;69700;-36
2021/10/05 03:09:04;;;;;;;48.38;39.42;;;;;;;30.50;69.81;100620.75;4940291;28;65639;-36
2021/10/05 03:12:13;;;;;;;54.30;43.80;;;;;;;30.60;69.77;100637.31;4971623;28;69507;-36
2021/10/05 03:15:17;;;;;;;55.03;44.72;;;;;;;30.61;68.96;100628.13;4927440;28;66770;-38
2021/10/05 03:18:29;;;;;;;60.47;45.60;;;;;;;30.56;69.67;100633.38;4982173;28;69731;-37
2021/10/05 03:21:25;;;;;;;55.75;47.00;;;;;;;30.57;69.09;100637.78;4969946;28;66194;-38
2021/10/05 03:24:22;;;;;;;49.90;42.92;;;;;;;30.54;69.13;100632.81;4968957;28;69097;-38
2021/10/05 03:27:15;;;;;;;46.03;41.08;;;;;;;30.63;69.83;100630.63;4983536;28;65380;-37
2021/10/05 03:30:10;;;;;;;;;;;;;;;30.50;70.42;100637.00;4982442;28;70056;-44
2021/10/05 03:33:29;;;;;;;56.95;45.25;;;;;;;30.73;69.46;100631.75;5048941;28;44622;-36
2021/10/05 03:36:29;;;;;;;51.45;44.17;;;;;;;30.78;68.94;100635.66;5046105;28;70257;-36
2021/10/05 03:39:14;;;;;;;53.50;46.35;;;;;;;30.77;69.09;100631.31;5024409;28;66267;-36
2021/10/05 03:42:07;;;;;;;58.67;46.58;;;;;;;30.80;69.78;100628.19;5027264;28;70186;-38
2021/10/05 03:44:48;;;;;;;52.97;45.03;;;;;;;30.80;69.72;100625.47;5052908;28;64585;-37
2021/10/05 03:47:24;;;;;;;51.45;43.85;;;;;;;30.79;70.14;100618.38;5036940;28;69202;-37
2021/10/05 03:50:10;;;;;;;51.22;40.97;;;;;;;30.80;70.29;100620.06;5044519;28;65913;-37
2021/10/05 03:52:46;;;;;;;44.22;38.80;;;;;;;30.90;70.56;100623.06;5052320;27;70135;-37
2021/10/05 03:55:19;;;;;;;42.70;37.67;;;;;;;30.92;70.46;100620.94;5028175;28;66145;-37
2021/10/05 03:57:54;;;;;;;45.92;37.17;;;;;;;30.94;70.91;100626.97;5038706;28;70024;-37
2021/10/05 04:00:43;;;;;;;40.72;35.20;;;;;;;30.97;71.09;100620.28;5052518;28;66596;-36
2021/10/05 04:03:18;;;;;;;37.88;34.00;;;;;;;30.99;70.40;100610.88;5030197;28;69997;-39
2021/10/05 04:05:54;;;;;;;39.58;35.33;;;;;;;31.05;70.70;100598.28;5082721;27;66491;-37
2021/10/05 04:08:28;;;;;;;39.65;34.20;;;;;;;31.04;70.48;100600.19;5006904;28;70296;-36
2021/10/05 04:11:05;;;;;;;41.05;34.65;;;;;;;31.04;70.91;100594.75;5037256;28;66265;-36
2021/10/05 04:13:36;;;;;;;41.03;34.75;;;;;;;31.03;71.11;100598.50;5034427;28;70015;-36
2021/10/05 04:16:08;;;;;;;40.33;34.83;;;;;;;31.07;70.52;100591.59;5064049;27;66144;-36
2021/10/05 04:18:39;;;;;;;38.97;33.78;;;;;;;31.02;70.30;100588.75;5030795;28;70359;-38
2021/10/05 04:21:14;;;;;;;41.95;33.22;;;;;;;31.07;70.44;100582.66;5050014;28;65202;-37
2021/10/05 04:23:47;;;;;;;40.35;33.20;;;;;;;30.73;70.27;100522.63;5050906;28;69725;-37
2021/10/05 04:26:19;;;;;;;34.78;31.08;;;;;;;31.08;70.49;100574.28;5023517;28;65447;-38
2021/10/05 04:28:53;;;;;;;32.65;29.33;;;;;;;31.10;70.24;100566.75;5048220;28;70094;-37
2021/10/05 04:31:24;;;;;;;;;;;;;;;30.89;70.45;100554.50;5045786;28;66072;-37
2021/10/05 04:33:59;;;;;;;32.67;29.55;;;;;;;31.12;69.53;100553.81;5048475;28;71504;-37
2021/10/05 04:36:32;;;;;;;31.75;28.60;;;;;;;31.10;69.79;100539.66;5033091;28;65624;-36
2021/10/05 04:39:06;;;;;;;34.17;27.83;;;;;;;31.16;69.47;100533.31;5023228;28;69628;-37
2021/10/05 04:41:37;;;;;;;32.45;29.00;;;;;;;31.14;69.53;100530.00;5046009;28;65685;-36
2021/10/05 04:44:10;;;;;;;30.83;27.52;;;;;;;31.20;69.14;100513.88;5034559;28;69818;-36
2021/10/05 04:46:41;;;;;;;27.98;25.20;;;;;;;31.21;69.40;100502.00;5024762;28;65984;-37
2021/10/05 04:49:17;;;;;;;29.00;26.05;;;;;;;31.22;69.26;100500.94;5025519;28;70061;-36
2021/10/05 04:51:50;;;;;;;29.10;26.02;;;;;;;31.24;69.14;100485.28;5000247;28;67823;-38
2021/10/05 04:54:22;;;;;;;28.45;25.52;;;;;;;31.22;68.80;100492.81;5024408;28;70190;-37
2021/10/05 04:56:56;;;;;;;27.65;24.83;;;;;;;31.27;68.46;100473.97;5022935;28;66597;-37
2021/10/05 04:59:33;;;;;;;27.65;24.60;;;;;;;31.25;68.65;100459.81;5019175;28;70305;-36
2021/10/05 05:02:08;;;;;;;24.55;22.23;;;;;;;31.26;68.27;100464.16;5021242;28;65411;-37
2021/10/05 05:04:40;;;;;;;24.92;22.75;;;;;;;31.25;68.26;100460.66;5026345;28;69500;-37
2021/10/05 05:07:13;;;;;;;24.33;22.13;;;;;;;31.28;68.50;100459.34;5011537;28;65248;-37
2021/10/05 05:09:45;;;;;;;22.60;20.90;;;;;;;31.29;67.96;100461.03;5030135;28;70441;-38
2021/10/05 05:12:17;;;;;;;25.17;22.67;;;;;;;31.33;68.22;100462.19;5024544;28;65038;-37
2021/10/05 05:14:49;;;;;;;24.13;21.93;;;;;;;31.26;68.11;100442.50;5022327;28;70251;-36
2021/10/05 05:17:21;;;;;;;24.23;21.92;;;;;;;31.23;67.79;100424.00;5030517;28;66508;-37
2021/10/05 05:19:53;;;;;;;24.17;21.03;;;;;;;31.24;68.27;100428.38;5022085;28;70181;-36
2021/10/05 05:22:24;;;;;;;;;;;;;;;31.14;68.31;100437.06;5031175;28;66356;-38
2021/10/05 05:24:55;;;;;;;23.50;21.08;;;;;;;31.34;68.27;100431.31;5008762;28;70994;-36
2021/10/05 05:27:26;;;;;;;25.70;23.20;;;;;;;31.34;67.77;100426.75;5023756;28;66495;-36
2021/10/05 05:29:57;;;;;;;;;;;;;;;31.20;68.19;100428.00;5026021;28;70072;-37
2021/10/05 05:32:30;;;;;;;;;;;;;;;31.19;67.92;100433.66;5027794;28;66778;-36
2021/10/05 05:35:02;;;;;;;22.77;21.02;;;;;;;31.38;67.10;100421.69;5021240;28;69473;-37
2021/10/05 05:37:33;;;;;;;23.73;21.67;;;;;;;31.39;67.17;100423.34;5023325;28;66494;-37
2021/10/05 05:40:07;;;;;;;24.60;22.20;;;;;;;31.41;67.24;100404.97;5023455;28;69801;-37
2021/10/05 05:42:39;;;;;;;22.52;20.52;;;;;;;31.42;66.90;100401.19;5021594;28;66105;-37
2021/10/05 05:45:11;;;;;;;22.65;20.40;;;;;;;31.42;66.99;100395.75;4996737;28;69789;-37
2021/10/05 05:47:42;;;;;;;;;;;;;;;31.10;67.59;100376.28;5033537;28;66524;-35
2021/10/05 05:50:14;;;;;;;26.65;21.45;;;;;;;31.42;67.11;100382.22;5002971;28;69097;-36
2021/10/05 05:52:46;;;;;;;21.15;19.65;;;;;;;31.44;66.75;100371.16;5003719;28;66481;-36
2021/10/05 05:55:17;;;;;;;30.77;21.85;;;;;;;31.48;67.11;100359.59;5018893;28;70196;-35
2021/10/05 05:57:51;;;;;;;22.20;20.30;;;;;;;31.49;67.25;100352.28;5024507;28;66278;-40
2021/10/05 06:00:24;;;;;;;22.00;19.85;;;;;;;31.42;67.34;100328.00;5016079;28;70536;-37
2021/10/05 06:02:57;;;;;;;21.20;19.23;;;;;;;31.49;67.28;100331.44;5032271;28;66348;-37
2021/10/05 06:05:31;;;;;;;20.88;18.98;;;;;;;31.53;67.16;100332.59;5026575;28;69970;-36
2021/10/05 06:08:03;;;;;;;21.95;20.15;;;;;;;31.51;67.10;100332.03;5014053;28;66109;-36
2021/10/05 06:10:37;;;;;;;20.58;18.88;;;;;;;31.53;67.29;100332.59;5025131;28;69597;-36
2021/10/05 06:13:09;;;;;;;21.08;19.13;;;;;;;31.51;67.35;100318.47;5027607;28;66302;-36
2021/10/05 06:15:40;;;;;;;20.98;19.27;;;;;;;31.55;67.12;100319.63;5027353;28;69650;-37
2021/10/05 06:18:14;;;;;;;19.55;18.08;;;;;;;31.54;67.14;100323.41;5031251;28;65719;-37
2021/10/05 06:20:48;;;;;;;19.38;17.85;;;;;;;31.57;66.95;100319.41;5020111;28;69926;-38
2021/10/05 06:23:21;;;;;;;20.45;18.95;;;;;;;31.56;67.00;100310.41;5023599;28;65802;-36
2021/10/05 06:25:55;;;;;;;19.73;18.13;;;;;;;31.53;66.89;100302.75;5025692;28;69433;-37
2021/10/05 06:28:31;;;;;;;18.83;17.45;;;;;;;31.54;67.21;100296.31;5007595;28;66723;-36
2021/10/05 06:31:06;;;;;;;19.38;18.05;;;;;;;31.52;67.46;100301.13;5021176;28;70402;-37
2021/10/05 06:33:44;;;;;;;20.70;19.05;;;;;;;31.53;67.63;100291.94;5018032;28;66324;-38
2021/10/05 06:36:17;;;;;;;20.98;18.40;;;;;;;31.61;67.47;100291.56;5014186;28;71449;-38
2021/10/05 06:38:58;;;;;;;18.25;16.20;;;;;;;31.71;67.70;100290.13;5023981;28;66806;-37
2021/10/05 06:41:34;;;;;;;18.85;17.17;;;;;;;31.78;67.64;100291.63;5023251;28;69484;-37
2021/10/05 06:44:18;;;;;;;19.52;17.80;;;;;;;31.82;67.19;100292.00;5035116;28;65681;-42
2021/10/05 06:47:14;;;;;;;19.85;17.70;;;;;;;31.88;67.60;100290.19;5032481;28;70312;-37
2021/10/05 06:49:47;;;;;;;20.02;18.00;;;;;;;31.90;67.47;100283.47;5032990;28;65952;-37
2021/10/05 06:52:21;;;;;;;19.88;18.08;;;;;;;31.94;67.27;100289.25;5034162;28;69999;-37
2021/10/05 06:55:01;;;;;;;22.13;19.73;;;;;;;31.94;67.30;100284.66;5002172;28;66214;-37
2021/10/05 06:57:56;;;;;;;20.38;18.52;;;;;;;31.96;67.04;100287.97;5029691;28;69562;-37
2021/10/05 07:00:42;;;;;;;20.70;18.85;;;;;;;31.97;67.06;100283.34;5034776;28;65704;-37
2021/10/05 07:03:42;;;;;;;21.73;18.77;;;;;;;31.98;66.77;100295.84;5034847;28;69231;-37
2021/10/05 07:06:31;;;;;;;18.92;17.23;;;;;;;31.63;66.78;100222.72;5033002;28;66090;-37
2021/10/05 07:09:36;;;;;;;19.00;17.17;;;;;;;31.84;65.89;100251.88;5011060;28;69742;-37
2021/10/05 07:12:33;;;;;;;17.17;15.85;;;;;;;31.97;66.31;100258.94;5023369;28;65410;-37
2021/10/05 07:15:17;;;;;;;16.15;15.05;;;;;;;31.97;66.02;100257.03;5021634;28;69808;-37
2021/10/05 07:18:04;;;;;;;16.38;14.85;;;;;;;31.72;66.51;100199.56;5014159;28;65694;-37
2021/10/05 07:20:47;;;;;;;15.75;14.55;;;;;;;31.63;66.28;100182.06;5010172;28;70437;-37
2021/10/05 07:23:31;;;;;;;17.42;14.25;;;;;;;31.62;66.82;100173.09;5027316;28;67860;-38
2021/10/05 07:26:22;;;;;;;14.90;13.35;;;;;;;31.91;66.98;100209.19;5021930;28;69891;-37
2021/10/05 07:29:05;;;;;;;15.30;14.02;;;;;;;31.92;66.87;100204.59;5030789;28;64836;-37
2021/10/05 07:32:35;;;;;;;13.02;12.23;;;;;;;31.94;66.68;100197.03;5028498;28;69546;-38
2021/10/05 07:36:06;;;;;;;13.45;12.68;;;;;;;31.96;66.58;100203.88;5024502;28;66662;-38
2021/10/05 07:39:13;;;;;;;14.20;13.20;;;;;;;31.95;66.34;100194.06;5033311;28;70284;-38
2021/10/05 07:42:20;;;;;;;13.38;12.45;;;;;;;32.02;65.66;100192.03;5031244;28;66440;-38
2021/10/05 07:45:18;;;;;;;14.05;12.98;;;;;;;32.05;65.13;100188.81;5024963;27;69764;-38
2021/10/05 07:48:14;;;;;;;13.63;12.25;;;;;;;32.09;65.25;100182.91;5028056;28;65028;-37
2021/10/05 07:51:29;;;;;;;13.43;12.25;;;;;;;32.08;65.81;100178.56;5030914;28;70173;-37
2021/10/05 07:54:26;;;;;;;13.07;12.30;;;;;;;31.75;65.92;100129.41;5025753;28;66716;-39
2021/10/05 07:57:17;;;;;;;13.90;12.73;;;;;;;32.04;65.84;100148.41;5021540;28;70115;-38
2021/10/05 08:00:04;;;;;;;12.70;11.90;;;;;;;32.11;66.27;100153.66;4997668;28;66378;-38
2021/10/05 08:03:09;;;;;;;13.05;11.90;;;;;;;32.11;65.45;100162.59;5016262;28;69330;-38
2021/10/05 08:05:53;;;;;;;12.82;11.93;;;;;;;32.17;65.87;100163.50;5013462;28;65368;-38
2021/10/05 08:08:40;;;;;;;12.02;11.23;;;;;;;32.23;65.86;100157.09;5010802;28;69324;-37
2021/10/05 08:11:31;;;;;;;12.57;11.68;;;;;;;32.23;65.50;100159.81;5016414;28;66287;-38
2021/10/05 08:14:47;;;;;;;13.27;12.05;;;;;;;32.00;65.71;100120.91;5004779;28;69847;-38
2021/10/05 08:17:55;;;;;;;20.35;11.50;;;;;;;32.18;65.26;100149.72;5032946;28;65454;-37
2021/10/05 08:20:31;;;;;;;13.57;12.35;;;;;;;32.24;65.64;100147.91;5033018;28;70347;-38
2021/10/05 08:23:33;;;;;;;12.90;11.98;;;;;;;32.28;65.48;100149.03;5033570;28;66297;-37
2021/10/05 08:26:10;;;;;;;13.70;12.23;;;;;;;32.31;66.19;100137.69;5012471;28;69913;-37
2021/10/05 08:29:00;;;;;;;12.55;11.35;;;;;;;32.36;66.01;100139.66;4997130;28;66234;-38
2021/10/05 08:31:54;;;;;;;12.73;11.70;;;;;;;32.36;65.93;100140.47;5005901;28;70744;-37
2021/10/05 08:35:04;;;;;;;12.32;11.52;;;;;;;32.31;65.26;100142.28;5040715;28;66294;-37
2021/10/05 08:37:59;;;;;;;12.90;12.02;;;;;;;32.40;65.01;100151.66;5028735;28;71318;-38
2021/10/05 08:41:02;;;;;;;12.80;11.63;;;;;;;32.38;65.23;100162.78;5025125;28;65917;-38
2021/10/05 08:43:50;;;;;;;13.65;12.45;;;;;;;32.42;64.99;100171.22;5025785;28;70411;-39
2021/10/05 08:46:40;;;;;;;15.07;13.52;;;;;;;32.46;65.09;100173.25;4996398;28;64776;-38
2021/10/05 08:49:24;;;;;;;13.82;12.85;;;;;;;32.49;64.79;100183.59;4997794;28;69036;-38
2021/10/05 08:52:05;;;;;;;18.10;13.13;;;;;;;32.52;65.46;100184.19;5023353;28;67097;-39
2021/10/05 08:54:44;;;;;;;14.68;13.45;;;;;;;32.55;65.23;100180.97;5026419;28;70901;-38
2021/10/05 08:57:52;;;;;;;14.38;13.00;;;;;;;32.58;64.91;100188.63;5022690;28;66022;-38
2021/10/05 09:00:37;;;;;;;14.15;12.88;;;;;;;32.61;65.19;100196.25;5022831;28;69561;-37
2021/10/05 09:03:25;;;;;;;17.30;15.63;;;;;;;32.62;64.24;100197.91;4983866;28;65645;-37
2021/10/05 09:06:18;;;;;;;14.60;13.38;;;;;;;32.56;64.46;100198.91;5025106;28;70249;-37
2021/10/05 09:09:08;;;;;;;15.48;14.07;;;;;;;32.57;64.29;100208.69;5014160;28;65424;-39
2021/10/05 09:11:54;;;;;;;14.90;13.97;;;;;;;32.68;64.02;100222.19;5019255;28;69349;-38
2021/10/05 09:14:50;;;;;;;15.98;14.68;;;;;;;32.67;64.39;100217.00;5031863;28;66132;-38
2021/10/05 09:17:26;;;;;;;16.05;14.65;;;;;;;32.76;65.12;100225.53;5016387;28;70433;-38
2021/10/05 09:20:19;;;;;;;17.05;15.52;;;;;;;32.62;63.80;100225.88;5000628;28;66172;-37
2021/10/05 09:23:14;;;;;;;18.20;16.67;;;;;;;32.61;63.65;100239.72;5033629;28;70494;-36
2021/10/05 09:26:16;;;;;;;18.98;17.38;;;;;;;32.52;63.85;100246.63;5032675;28;65553;-38
2021/10/05 09:28:54;;;;;;;17.38;15.88;;;;;;;32.45;64.31;100253.00;4996309;28;69866;-38
2021/10/05 09:31:30;;;;;;;20.05;18.15;;;;;;;32.46;63.98;100260.13;5032072;28;65221;-37
2021/10/05 09:34:08;;;;;;;19.92;17.90;;;;;;;32.39;63.84;100245.84;5031743;28;70822;-37
2021/10/05 09:36:40;;;;;;;19.30;17.52;;;;;;;32.43;64.24;100255.16;5027464;28;67147;-37
2021/10/05 09:39:12;;;;;;;19.10;17.27;;;;;;;32.41;64.10;100256.47;5025555;28;70292;-39
2021/10/05 09:41:54;;;;;;;19.65;17.90;;;;;;;32.42;64.50;100258.91;5027276;28;65650;-37
2021/10/05 09:44:29;;;;;;;23.08;16.98;;;;;;;32.38;64.96;100274.06;5036516;28;70339;-43
2021/10/05 09:47:07;;;;;;;17.98;16.13;;;;;;;32.36;65.75;100281.63;5012821;28;65023;-37
2021/10/05 09:49:44;;;;;;;18.95;17.23;;;;;;;32.32;65.24;100285.91;5040188;28;70180;-37
2021/10/05 09:52:16;;;;;;;18.85;16.42;;;;;;;32.37;65.32;100304.97;5028642;28;65751;-38
2021/10/05 09:54:56;;;;;;;17.63;14.82;;;;;;;32.34;64.98;100313.59;5028418;28;70370;-38
2021/10/05 09:57:31;;;;;;;13.30;12.32;;;;;;;32.32;65.25;100317.63;5027581;28;66246;-38
2021/10/05 10:00:07;;;;;;;12.53;11.27;;;;;;;32.07;65.04;100285.41;5031207;28;69419;-38
2021/10/05 10:02:43;;;;;;;10.93;10.23;;;;;;;32.24;64.87;100322.41;5008651;28;66122;-39
2021/10/05 10:05:19;;;;;;;10.55;9.75;;;;;;;31.88;64.56;100274.75;5027913;28;69172;-37
2021/10/05 10:07:57;;;;;;;10.55;9.75;;;;;;;32.14;64.74;100332.22;5013618;28;67570;-38
2021/10/05 10:10:36;;;;;;;10.48;9.50;;;;;;;31.70;64.44;100266.78;5035030;28;70292;-37
2021/10/05 10:13:20;;;;;;;10.30;9.30;;;;;;;31.97;64.76;100315.91;5029841;28;65168;-38
2021/10/05 10:15:57;;;;;;;10.13;9.13;;;;;;;32.03;64.83;100320.34;5021995;28;70191;-38
2021/10/05 10:18:28;;;;;;;10.27;9.38;;;;;;;31.92;64.97;100319.31;5028301;28;66585;-37
2021/10/05 10:21:07;;;;;;;;;;;;;;;31.63;65.75;100326.56;5027293;28;69265;-38
2021/10/05 10:23:39;;;;;;;9.80;9.10;;;;;;;31.71;64.82;100328.09;5036811;28;66597;-37
2021/10/05 10:26:19;;;;;;;9.95;9.15;;;;;;;31.66;65.30;100327.97;5027550;28;69481;-38
2021/10/05 10:28:59;;;;;;;8.70;8.20;;;;;;;31.38;65.99;100269.94;5027548;28;65922;-37
2021/10/05 10:31:32;;;;;;;10.25;9.48;;;;;;;31.53;66.64;100278.38;5035127;28;69210;-37
2021/10/05 10:34:03;;;;;;;10.30;9.57;;;;;;;31.85;66.83;100317.81;5034079;28;65692;-40
2021/10/05 10:36:43;;;;;;;11.90;10.73;;;;;;;31.63;67.36;100276.94;5033836;28;70706;-37
2021/10/05 10:39:24;;;;;;;13.80;13.00;;;;;;;31.62;67.30;100286.94;5030558;28;66364;-37
2021/10/05 10:41:56;;;;;;;15.27;14.10;;;;;;;31.94;67.34;100376.88;5025456;28;69048;-36
2021/10/05 10:44:41;;;;;;;17.55;16.20;;;;;;;31.88;67.61;100385.94;5026878;28;66778;-38
2021/10/05 10:47:24;;;;;;;19.00;17.58;;;;;;;31.90;67.74;100381.13;5029477;28;69942;-38
2021/10/05 10:50:00;;;;;;;20.17;18.38;;;;;;;31.71;67.85;100336.22;5030468;28;65500;-38
2021/10/05 10:52:34;;;;;;;22.73;20.52;;;;;;;32.00;68.26;100389.47;5031398;28;70859;-38
2021/10/05 10:55:12;;;;;;;21.88;19.75;;;;;;;32.00;68.21;100407.66;5034693;28;66534;-38
2021/10/05 10:57:56;;;;;;;23.13;20.83;;;;;;;32.02;68.28;100411.78;5030349;28;70083;-37
2021/10/05 11:00:34;;;;;;;24.13;21.58;;;;;;;32.00;68.64;100419.31;5027759;28;65238;-37
2021/10/05 11:03:07;;;;;;;21.50;19.60;;;;;;;32.01;68.85;100409.28;5037787;28;69195;-36
2021/10/05 11:05:40;;;;;;;21.48;19.45;;;;;;;32.00;68.91;100408.47;5028080;28;66286;-36
2021/10/05 11:08:12;;;;;;;19.83;17.70;;;;;;;31.73;68.89;100359.34;5035315;28;69837;-36
2021/10/05 11:10:49;;;;;;;18.95;16.98;;;;;;;31.99;69.23;100427.72;5033704;28;66534;-37
2021/10/05 11:13:20;;;;;;;17.40;15.85;;;;;;;31.98;69.32;100429.59;5035475;28;70316;-37
2021/10/05 11:15:52;;;;;;;19.63;17.85;;;;;;;31.98;70.21;100439.59;5035455;28;66423;-37
2021/10/05 11:18:27;;;;;;;17.88;16.08;;;;;;;31.97;70.58;100452.34;5036223;28;69499;-37
2021/10/05 11:21:04;;;;;;;17.40;15.80;;;;;;;32.04;70.14;100479.38;5035863;28;66290;-37
2021/10/05 11:23:44;;;;;;;19.02;15.05;;;;;;;31.61;70.92;100427.13;5015766;28;69715;-37
2021/10/05 11:26:21;;;;;;;15.82;14.57;;;;;;;32.00;71.29;100492.56;5033437;28;66071;-39
2021/10/05 11:28:53;;;;;;;16.10;14.73;;;;;;;31.96;71.76;100488.69;5031126;28;70484;-37
2021/10/05 11:31:27;;;;;;;15.32;13.93;;;;;;;31.98;71.20;100502.84;4989312;28;66144;-37
2021/10/05 11:34:05;;;;;;;15.43;14.10;;;;;;;31.94;71.09;100501.66;5011944;28;69998;-38
2021/10/05 11:36:38;;;;;;;14.27;12.95;;;;;;;31.95;70.84;100518.75;5005416;28;66361;-36
2021/10/05 11:39:20;;;;;;;13.20;11.93;;;;;;;31.48;70.75;100449.06;5040307;28;69001;-37
2021/10/05 11:42:04;;;;;;;16.35;12.32;;;;;;;31.91;70.71;100523.84;5031378;28;65368;-39
2021/10/05 11:44:43;;;;;;;11.93;11.13;;;;;;;31.64;70.53;100490.88;5032200;28;70198;-39
2021/10/05 11:47:24;;;;;;;11.55;10.50;;;;;;;31.88;70.74;100540.56;5031791;28;65347;-46
2021/10/05 11:49:59;;;;;;;11.43;10.48;;;;;;;31.44;70.88;100474.97;5022774;28;70279;-39
2021/10/05 11:52:39;;;;;;;9.93;9.23;;;;;;;31.86;70.81;100548.09;5028433;27;66687;-41
2021/10/05 11:55:12;;;;;;;10.32;9.43;;;;;;;31.81;70.61;100556.94;5039977;28;69772;-37
2021/10/05 11:57:55;;;;;;;9.68;8.88;;;;;;;31.81;70.55;100556.09;5040753;28;66682;-38
2021/10/05 12:00:36;;;;;;;9.13;8.52;;;;;;;31.76;70.78;100559.53;5017942;28;70043;-43
2021/10/05 12:03:31;;;;;;;9.25;8.40;;;;;;;31.76;70.94;100547.84;5042199;28;65665;-38
2021/10/05 12:06:28;;;;;;;8.43;7.75;;;;;;;31.63;70.42;100537.25;5028172;28;68466;-37
2021/10/05 12:09:05;;;;;;;7.57;7.07;;;;;;;31.72;70.72;100552.91;5034336;28;67118;-39
2021/10/05 12:11:44;;;;;;;7.55;7.05;;;;;;;31.70;70.58;100543.34;4995897;28;70236;-37
2021/10/05 12:14:29;;;;;;;6.35;5.95;;;;;;;31.34;70.67;100507.19;5027129;28;65516;-47
2021/10/05 12:17:19;;;;;;;6.78;6.18;;;;;;;31.66;70.23;100572.00;5031192;28;69356;-39
2021/10/05 12:19:57;;;;;;;6.82;6.20;;;;;;;31.56;70.48;100559.00;5031161;28;66396;-38
2021/10/05 12:22:40;;;;;;;6.72;6.07;;;;;;;30.99;70.82;100472.72;5030053;28;70605;-41
2021/10/05 12:25:27;;;;;;;6.25;5.70;;;;;;;31.58;70.49;100568.56;5026302;28;65932;-42
2021/10/05 12:28:11;;;;;;;5.80;5.40;;;;;;;31.53;70.45;100565.72;5027937;28;69130;-39
2021/10/05 12:30:51;;;;;;;5.75;5.13;;;;;;;31.54;69.88;100567.41;5020910;28;66247;-43
2021/10/05 12:33:37;;;;;;;6.35;5.93;;;;;;;31.46;69.95;100565.03;5032010;28;69435;-39
2021/10/05 12:36:31;;;;;;;5.85;5.25;;;;;;;31.48;69.94;100571.03;5022850;28;67361;-39
2021/10/05 12:39:19;;;;;;;5.75;5.38;;;;;;;31.42;70.39;100569.22;5024561;28;70421;-38